Latest Weather Observations for Gladstone

IDQ60801

Issued at 11:35 am EST Saturday 1 November 2014 (issued every 30 minutes, with the page automatically refreshed every 10 minutes)

About weather observations | Map of weather stations | Latest weather observations for QLD | Other Formats
Station Details ID: 039123 Name: GLADSTONE RADAR Lat: -23.86 Lon: 151.26 Height: 74.5 m
Data from the previous 72 hours. | See also: Recent months at Gladstone
Date/Time
EST
Temp
°C
App
Temp
°C
Dew
Point
Rel
Hum
%
Delta-T
°C
Wind Press
QNH
hPa
Press
MSL
hPa
Rain
since 9 am
mm
Dir
 
Spd
km/h
Gust
km/h
Spd
kts
Gust
kts
01/11:30am 30.2 29.9 18.3 49 7.7 NE 17 28 9 15 1015.7 1015.3 0.0
01/11:00am 29.8 28.9 18.3 50 7.4 NE 20 32 11 17 1016.2 1015.8 0.0
01/10:30am 28.9 28.1 18.1 52 6.9 NE 19 28 10 15 1016.5 1016.1 0.0
01/10:00am 30.3 29.4 17.7 46 8.0 NE 19 33 10 18 1016.7 1016.3 0.0
01/09:30am 29.1 29.3 18.5 52 6.8 NE 15 28 8 15 1016.9 1016.6 0.0
01/09:00am 28.8 28.8 18.9 55 6.4 NNE 17 28 9 15 1017.0 1016.7 0.0
01/08:30am 25.4 25.7 17.8 62 4.8 NNE 13 24 7 13 1017.2 1016.9 0.0
01/08:00am 27.0 26.8 17.5 56 6.0 NNE 15 28 8 15 1016.8 1016.5 0.0
01/07:30am 26.7 26.5 18.6 61 5.2 NNE 17 28 9 15 1016.4 1016.1 0.0
01/07:00am 24.8 24.8 18.0 66 4.3 NNE 15 22 8 12 1016.1 1015.8 0.0
01/06:30am 24.7 27.0 19.8 74 3.2 NNE 7 15 4 8 1015.7 1015.4 0.0
01/06:00am 22.7 24.0 18.5 77 2.6 NNE 9 17 5 9 1015.6 1015.3 0.0
01/05:30am 21.9 22.7 18.1 79 2.4 NNE 11 19 6 10 1015.3 1015.0 0.0
01/05:00am 21.6 22.6 17.8 79 2.4 NNE 9 19 5 10 1015.0 1014.7 0.0
01/04:30am 21.8 22.4 17.8 78 2.5 NNE 11 19 6 10 1015.0 1014.7 0.0
01/04:00am 21.7 22.2 18.3 81 2.1 NNE 13 20 7 11 1014.5 1014.2 0.0
01/03:30am 21.7 22.2 18.3 81 2.1 NNE 13 22 7 12 1014.5 1014.2 0.0
01/03:00am 21.7 22.6 18.5 82 2.0 NNE 11 22 6 12 1014.7 1014.4 0.0
01/02:30am 21.8 22.8 18.6 82 2.0 N 11 19 6 10 1014.9 1014.6 0.0
01/02:00am 21.9 23.0 18.9 83 1.9 N 11 19 6 10 1014.8 1014.5 0.0
01/01:30am 22.0 23.2 19.0 83 1.9 NNE 11 20 6 11 1015.0 1014.7 0.0
01/01:00am 22.3 23.2 19.3 83 1.9 NNE 13 24 7 13 1014.9 1014.6 0.0
01/12:30am 22.4 23.7 19.4 83 1.9 N 11 19 6 10 1015.3 1015.0 0.0
01/12:00am 23.0 24.4 19.6 81 2.2 NNE 11 19 6 10 1015.8 1015.5 0.0
 
Date/Time
EST
Temp
°C
App
Temp
°C
Dew
Point
Rel
Hum
%
Delta-T
°C
Wind Press
QNH
hPa
Press
MSL
hPa
Rain
since 9 am
mm
Dir
 
Spd
km/h
Gust
km/h
Spd
kts
Gust
kts
31/11:30pm 23.3 24.6 20.1 82 2.1 NE 13 20 7 11 1016.0 1015.7 0.0
31/11:00pm 23.2 25.1 19.8 81 2.2 NE 9 17 5 9 1016.2 1015.9 0.0
31/10:30pm 23.1 24.9 19.5 80 2.3 NE 9 13 5 7 1016.4 1016.1 0.0
31/10:00pm 22.9 24.7 19.5 81 2.2 NE 9 15 5 8 1016.6 1016.3 0.0
31/09:30pm 22.6 23.9 19.2 81 2.2 NE 11 19 6 10 1016.4 1016.1 0.0
31/09:00pm 22.7 23.5 19.1 80 2.3 NE 13 20 7 11 1016.2 1015.9 0.0
31/08:30pm 22.9 24.6 19.3 80 2.3 NE 9 19 5 10 1016.2 1015.9 0.0
31/08:00pm 22.6 23.5 19.2 81 2.2 NE 13 19 7 10 1015.9 1015.6 0.0
31/07:30pm 22.7 23.5 19.1 80 2.3 NE 13 17 7 9 1015.6 1015.3 0.0
31/07:00pm 23.0 24.2 19.0 78 2.5 NE 11 19 6 10 1015.5 1015.2 0.0
31/06:30pm 23.1 23.4 18.8 77 2.7 NE 15 20 8 11 1015.0 1014.7 0.0
31/06:00pm 23.3 24.2 18.4 74 3.1 NE 11 20 6 11 1014.8 1014.5 0.0
31/05:30pm 24.0 24.6 18.6 72 3.4 NE 13 20 7 11 1014.7 1014.4 0.0
31/05:00pm 24.3 24.6 18.0 68 4.0 NNE 13 24 7 13 1014.6 1014.3 0.0
31/04:30pm 25.4 26.0 18.6 66 4.3 NE 13 20 7 11 1014.4 1014.1 0.0
31/04:00pm 26.1 26.3 18.5 63 4.8 NNE 15 22 8 12 1014.4 1014.1 0.0
31/03:30pm 26.7 26.4 18.3 60 5.4 NE 17 26 9 14 1014.4 1014.1 0.0
31/03:00pm 28.0 27.8 18.4 56 6.1 NE 17 24 9 13 1014.3 1014.0 0.0
31/02:30pm 28.1 28.0 18.8 57 6.0 NE 17 28 9 15 1014.5 1014.2 0.0
31/02:00pm 29.1 29.0 18.8 53 6.7 NE 17 26 9 14 1014.7 1014.4 0.0
31/01:30pm 28.9 28.7 18.4 53 6.7 NE 17 26 9 14 1015.0 1014.7 0.0
31/01:00pm 30.0 30.6 19.4 53 6.9 NNE 15 22 8 12 1015.3 1015.0 0.0
31/12:30pm 30.0 30.4 19.1 52 7.1 NE 15 24 8 13 1015.8 1015.5 0.0
31/12:00pm 30.5 31.4 19.2 51 7.4 NE 13 22 7 12 1016.1 1015.8 0.0
31/11:30am 30.5 31.1 19.5 51 7.2 NE 15 24 8 13 1016.2 1015.9 0.0
31/11:00am 30.4 31.0 19.4 51 7.2 NE 15 24 8 13 1016.5 1016.2 0.0
31/10:30am 29.9 30.2 19.6 54 6.8 NE 17 26 9 14 1016.7 1016.4 0.0
31/10:00am 30.0 30.7 18.8 51 7.3 NNE 13 22 7 12 1017.0 1016.7 0.0
31/09:30am 29.0 29.8 19.0 54 6.5 NE 13 24 7 13 1017.1 1016.8 0.0
31/09:00am 28.5 29.5 19.4 57 5.9 NE 13 20 7 11 1017.2 1016.9 0.0
31/08:30am 28.5 29.5 19.4 57 5.9 NE 13 19 7 10 1017.2 1016.9 0.0
31/08:00am 27.6 29.5 19.7 62 5.1 NE 9 15 5 8 1017.1 1016.8 0.0
31/07:30am 26.6 28.8 19.7 66 4.5 NNE 7 17 4 9 1016.9 1016.6 0.0
31/07:00am 24.9 27.2 19.9 74 3.2 NNE 7 13 4 7 1016.8 1016.5 0.0
31/06:30am 23.2 26.2 20.0 82 2.1 N 4 9 2 5 1016.5 1016.2 0.0
31/06:00am 22.3 24.9 20.0 87 1.5 N 6 9 3 5 1016.1 1015.8 0.0
31/05:30am 21.8 24.0 19.7 88 1.3 NNW 7 11 4 6 1015.9 1015.6 0.0
31/05:00am 21.9 23.8 19.8 88 1.3 NNW 9 11 5 6 1015.5 1015.2 0.0
31/04:30am 21.3 23.7 19.6 90 1.1 NNE 6 9 3 5 1015.3 1015.0 0.0
31/04:00am 21.4 23.6 19.5 89 1.2 NNE 7 13 4 7 1014.9 1014.6 0.0
31/03:30am 21.9 23.8 19.8 88 1.3 N 9 15 5 8 1014.9 1014.6 0.0
31/03:00am 21.6 23.5 19.7 89 1.2 NNE 9 17 5 9 1014.6 1014.3 0.0
31/02:30am 21.7 23.8 19.4 87 1.5 NNE 7 13 4 7 1014.8 1014.5 0.0
31/02:00am 22.0 23.9 19.7 87 1.5 N 9 17 5 9 1015.0 1014.7 0.0
31/01:30am 22.1 23.9 19.6 86 1.6 N 9 15 5 8 1015.2 1014.9 0.0
31/01:00am 22.2 24.1 19.7 86 1.6 NNE 9 15 5 8 1015.0 1014.7 0.0
31/12:30am 22.7 24.7 19.9 84 1.8 N 9 17 5 9 1015.5 1015.2 0.0
31/12:00am 23.0 25.5 20.3 85 1.7 N 7 15 4 8 1016.0 1015.7 0.0
 
Date/Time
EST
Temp
°C
App
Temp
°C
Dew
Point
Rel
Hum
%
Delta-T
°C
Wind Press
QNH
hPa
Press
MSL
hPa
Rain
since 9 am
mm
Dir
 
Spd
km/h
Gust
km/h
Spd
kts
Gust
kts
30/11:30pm 23.0 25.1 20.1 84 1.9 NE 9 19 5 10 1016.0 1015.7 0.0
30/11:00pm 22.8 24.0 20.0 84 1.8 NE 13 22 7 12 1015.6 1015.3 0.0
30/10:30pm 22.6 24.8 20.3 87 1.5 NNE 9 15 5 8 1016.2 1015.9 0.0
30/10:00pm 22.3 24.3 20.0 87 1.5 NNE 9 17 5 9 1016.2 1015.9 0.0
30/09:30pm 22.4 24.5 20.1 87 1.5 NNE 9 19 5 10 1015.8 1015.5 0.0
30/09:00pm 22.5 24.5 20.0 86 1.6 NNE 9 19 5 10 1015.7 1015.4 0.0
30/08:30pm 22.6 24.5 19.8 84 1.8 N 9 17 5 9 1015.8 1015.5 0.0
30/08:00pm 22.7 24.6 19.7 83 1.9 NNE 9 17 5 9 1015.8 1015.5 0.0
30/07:30pm 22.7 24.6 19.7 83 1.9 NNE 9 15 5 8 1015.7 1015.4 0.0
30/07:00pm 23.0 24.6 20.0 83 1.9 NNE 11 19 6 10 1015.0 1014.7 0.0
30/06:30pm 23.1 25.3 19.7 81 2.2 NE 7 17 4 9 1014.9 1014.6 0.0
30/06:00pm 23.4 24.3 19.3 78 2.6 NNE 13 20 7 11 1014.3 1014.0 0.0
30/05:30pm 24.2 24.7 19.3 74 3.1 NNE 15 24 8 13 1013.6 1013.3 0.0
30/05:00pm 24.5 25.3 19.1 72 3.5 NE 13 20 7 11 1013.8 1013.5 0.0
30/04:30pm 25.2 25.6 19.1 69 3.9 NNE 15 22 8 12 1013.5 1013.2 0.0
30/04:00pm 26.2 26.4 19.3 65 4.5 NE 17 28 9 15 1013.4 1013.1 0.0
30/03:30pm 27.1 27.9 19.9 64 4.7 NE 15 26 8 14 1013.4 1013.1 0.0
30/03:00pm 27.7 27.4 19.2 60 5.5 NE 19 28 10 15 1013.5 1013.2 0.0
30/02:30pm 27.9 27.4 19.1 58 5.7 NE 20 28 11 15 1013.6 1013.3 0.0
30/02:00pm 28.7 27.8 19.1 56 6.2 NE 22 32 12 17 1013.8 1013.5 0.0
30/01:30pm 29.0 28.3 18.7 53 6.6 NE 20 30 11 16 1014.0 1013.7 0.0
30/01:00pm 29.0 29.2 19.3 55 6.3 NE 17 26 9 14 1014.4 1014.1 0.0
30/12:30pm 29.7 29.8 19.1 53 6.9 NE 17 28 9 15 1014.7 1014.4 0.0
30/12:00pm 30.2 30.1 19.6 53 7.0 NE 19 28 10 15 1015.3 1015.0 0.0
30/11:30am 30.5 30.8 19.5 51 7.2 NE 17 26 9 14 1015.8 1015.5 0.0
30/11:00am 29.5 28.8 18.6 52 7.0 ENE 20 28 11 15 1016.1 1015.8 0.0
30/10:30am 29.2 28.6 18.9 53 6.7 ENE 20 28 11 15 1016.4 1016.1 0.0
30/10:00am 29.7 30.0 19.7 55 6.6 NE 17 22 9 12 1016.7 1016.4 0.0
30/09:30am 29.0 29.5 19.3 55 6.3 NE 15 20 8 11 1016.9 1016.6 0.0
30/09:00am 28.7 30.0 19.3 56 6.1 NE 11 17 6 9 1017.2 1016.9 0.0
30/08:30am 26.2 27.7 19.8 68 4.2 NE 11 17 6 9 1017.5 1017.2 0.0
30/08:00am 26.7 29.6 21.0 71 3.8 NE 7 13 4 7 1017.5 1017.2 0.0
30/07:30am 23.8 26.8 20.1 80 2.4 N 4 9 2 5 1017.5 1017.2 0.0
30/07:00am 24.7 27.2 20.2 76 2.9 NNE 7 17 4 9 1017.2 1016.9 0.0
30/06:30am 24.7 27.5 20.8 79 2.6 NE 7 13 4 7 1016.8 1016.5 0.0
30/06:00am 23.1 25.8 21.4 90 1.1 NE 9 15 5 8 1016.4 1016.1 0.0
30/05:30am 21.7 24.3 20.5 93 0.8 NE 7 13 4 7 1016.0 1015.7 0.0
30/05:00am 21.7 23.7 20.7 94 0.6 NE 11 19 6 10 1015.7 1015.4 0.0
30/04:30am 21.5 22.9 20.3 93 0.8 NE 13 15 7 8 1015.3 1015.0 0.0
30/04:00am 21.7 23.9 20.5 93 0.8 NE 9 15 5 8 1014.9 1014.6 0.0
30/03:30am 21.8 23.7 20.6 93 0.8 NE 11 15 6 8 1014.6 1014.3 0.0
30/03:00am 22.0 23.5 20.6 92 0.9 NE 13 15 7 8 1014.5 1014.2 0.0
30/02:30am 22.1 24.4 20.7 92 0.9 NE 9 17 5 9 1014.5 1014.2 0.0
30/02:00am 22.1 23.8 20.9 93 0.8 NE 13 17 7 9 1014.5 1014.2 0.0
30/01:30am 22.2 23.8 20.8 92 0.9 NE 13 19 7 10 1014.6 1014.3 0.0
30/01:00am 22.3 24.0 20.9 92 0.9 NE 13 17 7 9 1014.8 1014.5 0.0
30/12:30am 22.4 23.8 21.0 92 0.9 NE 15 20 8 11 1014.8 1014.5 0.0
30/12:00am 22.6 23.5 20.9 90 1.1 NE 17 20 9 11 1015.1 1014.8 0.0
 
Date/Time
EST
Temp
°C
App
Temp
°C
Dew
Point
Rel
Hum
%
Delta-T
°C
Wind Press
QNH
hPa
Press
MSL
hPa
Rain
since 9 am
mm
Dir
 
Spd
km/h
Gust
km/h
Spd
kts
Gust
kts
29/11:30pm 22.8 24.1 20.9 89 1.2 NE 15 22 8 12 1015.3 1015.0 0.0
29/11:00pm 23.2 24.6 21.1 88 1.4 ENE 15 20 8 11 1015.5 1015.2 0.0
29/10:30pm 23.1 24.8 21.0 88 1.4 ENE 13 20 7 11 1015.5 1015.2 0.0
29/10:00pm 23.2 25.0 21.1 88 1.4 ENE 13 22 7 12 1015.4 1015.1 0.0
29/09:30pm 23.1 25.9 20.4 85 1.8 NE 6 15 3 8 1015.3 1015.0 0.0
29/09:00pm 23.2 26.0 20.9 87 1.5 NE 7 11 4 6 1015.2 1014.9 0.0
29/08:30pm 23.1 26.0 21.0 88 1.4 NNE 7 11 4 6 1014.9 1014.6 0.0
29/08:00pm 23.2 25.9 20.7 86 1.6 NNE 7 11 4 6 1014.5 1014.2 0.0
29/07:30pm 23.5 26.2 20.6 84 1.9 N 7 13 4 7 1014.1 1013.8 0.0
29/07:00pm 24.0 26.7 20.7 82 2.2 NNW 7 13 4 7 1013.5 1013.2 0.0
29/06:30pm 24.3 27.3 21.2 83 2.0 N 7 17 4 9 1013.1 1012.8 0.0
29/06:00pm 24.7 26.7 20.8 79 2.6 NNE 11 17 6 9 1012.7 1012.4 0.0
29/05:30pm 25.7 27.5 19.6 69 3.9 N 9 17 5 9 1012.4 1012.1 0.0
29/05:00pm 26.8 28.1 19.4 64 4.8 N 11 19 6 10 1012.1 1011.7 0.0
29/04:30pm 27.7 28.7 19.5 61 5.3 N 13 22 7 12 1011.8 1011.4 0.0
29/04:00pm 28.5 29.3 19.1 56 6.1 NNE 13 26 7 14 1011.6 1011.2 0.0
29/03:30pm 28.9 30.6 20.9 62 5.3 NNE 13 26 7 14 1011.5 1011.1 0.0
29/03:00pm 28.7 29.1 20.7 62 5.3 NE 19 30 10 16 1011.7 1011.3 0.0
29/02:30pm 29.8 30.5 20.4 57 6.2 NE 17 28 9 15 1011.8 1011.4 0.0
29/02:00pm 30.5 31.0 20.1 53 6.9 NE 17 28 9 15 1011.9 1011.5 0.0
29/01:30pm 30.3 30.6 20.5 55 6.5 NE 19 28 10 15 1012.0 1011.6 0.0
29/01:00pm 30.7 31.2 20.9 56 6.6 NE 19 28 10 15 1012.2 1011.8 0.0
29/12:30pm 32.6 34.2 21.5 52 7.5 NE 15 28 8 15 1012.4 1012.1 0.0
29/12:00pm 30.5 31.2 20.4 54 6.7 NE 17 24 9 13 1012.7 1012.4 0.0

Other Formats:

Comma delimited format used in spreadsheet applications
http://www.bom.gov.au/fwo/IDQ60801/IDQ60801.94380.axf

JavaScript Object Notation format (JSON) in row-major order
http://www.bom.gov.au/fwo/IDQ60801/IDQ60801.94380.json